Time;durP1;ratioP1;P1;durP2;ratioP2;P2;SDS_P1;SDS_P2;PMS_P1;PMS_P2;Temp;Humidity;BMP_temperature;BMP_pressure;BME280_temperature;BME280_humidity;BME280_pressure;Samples;Min_cycle;Max_cycle;Signal;HPM_P1;HPM_P2
2021/05/11 00:00:25;;;;;;;4.78;1.30;;;17.20;92.60;;;;;;5028755;28;20044;-58
2021/05/11 00:03:30;;;;;;;3.15;1.10;;;17.60;92.10;;;;;;5029063;28;20056;-57
2021/05/11 00:06:34;;;;;;;1.88;0.98;;;17.80;91.80;;;;;;5028411;28;20048;-57
2021/05/11 00:09:38;;;;;;;4.95;1.58;;;17.50;93.20;;;;;;5028021;28;20057;-57
2021/05/11 00:12:42;;;;;;;12.63;2.15;;;16.30;97.40;;;;;;5029049;28;20455;-57
2021/05/11 00:15:46;;;;;;;5.07;2.65;;;15.80;99.50;;;;;;5029245;28;20056;-54
2021/05/11 00:18:50;;;;;;;5.57;2.70;;;15.10;99.90;;;;;;5032772;28;20036;-58
2021/05/11 00:21:54;;;;;;;5.28;2.50;;;15.00;99.90;;;;;;5032170;28;20399;-54
2021/05/11 00:24:59;;;;;;;3.72;2.70;;;14.90;99.90;;;;;;5032155;28;20247;-56
2021/05/11 00:28:03;;;;;;;6.18;2.88;;;14.80;99.90;;;;;;5032533;28;20057;-56
2021/05/11 00:31:07;;;;;;;8.25;2.80;;;14.70;99.90;;;;;;5031734;28;20064;-53
2021/05/11 00:34:11;;;;;;;4.22;2.10;;;14.70;99.90;;;;;;5037887;28;20052;-57
2021/05/11 00:37:15;;;;;;;4.50;3.10;;;14.60;99.90;;;;;;5051689;28;20419;-56
2021/05/11 00:40:19;;;;;;;9.60;3.17;;;14.60;99.90;;;;;;5051636;28;20056;-57
2021/05/11 00:43:24;;;;;;;7.35;3.20;;;14.60;99.90;;;;;;5051804;28;20553;-56
2021/05/11 00:46:29;;;;;;;8.25;3.60;;;14.70;99.90;;;;;;5051362;28;20064;-58
2021/05/11 00:49:35;;;;;;;8.68;3.25;;;14.70;99.90;;;;;;5051881;28;20044;-57
2021/05/11 00:52:40;;;;;;;5.70;2.92;;;14.70;99.90;;;;;;5052268;28;20060;-57
2021/05/11 00:55:46;;;;;;;9.18;3.30;;;14.60;99.90;;;;;;5051387;28;20044;-58
2021/05/11 00:58:51;;;;;;;6.93;3.00;;;14.50;99.90;;;;;;5051772;28;20048;-56
2021/05/11 01:01:57;;;;;;;4.55;2.63;;;14.50;99.90;;;;;;5051338;28;20044;-58
2021/05/11 01:05:02;;;;;;;7.47;3.00;;;14.50;99.90;;;;;;5051842;28;20044;-57
2021/05/11 01:08:07;;;;;;;6.40;3.40;;;14.50;99.90;;;;;;5051181;28;20044;-57
2021/05/11 01:11:11;;;;;;;7.30;3.28;;;14.40;99.90;;;;;;5031771;28;20048;-58
2021/05/11 01:14:16;;;;;;;8.77;2.88;;;14.40;99.90;;;;;;5025339;28;20061;-58
2021/05/11 01:17:27;;;;;;;6.22;2.55;;;14.40;99.90;;;;;;5027506;28;20071;-58
2021/05/11 01:20:43;;;;;;;4.80;3.08;;;14.30;99.90;;;;;;5051440;28;20529;-54
2021/05/11 01:27:03;;;;;;;8.15;2.78;;;14.20;99.90;;;;;;5010266;28;20057;-55
2021/05/11 01:56:41;;;;;;;5.75;2.00;;;14.20;99.90;;;;;;5029902;28;20044;-58
2021/05/11 02:23:20;;;;;;;4.75;2.22;;;14.40;99.90;;;;;;5010314;28;20041;-58
2021/05/11 02:26:24;;;;;;;4.90;2.45;;;14.30;99.90;;;;;;5010163;28;20052;-57
2021/05/11 02:29:29;;;;;;;5.03;2.17;;;14.40;99.90;;;;;;5010398;28;20515;-56
2021/05/11 02:32:34;;;;;;;8.25;2.40;;;14.40;99.90;;;;;;5021747;28;20048;-58
2021/05/11 02:35:38;;;;;;;4.18;2.38;;;14.40;99.90;;;;;;5029661;28;20052;-55
2021/05/11 02:38:42;;;;;;;5.20;2.75;;;14.40;99.90;;;;;;5029897;28;20044;-56
2021/05/11 02:41:47;;;;;;;4.70;2.50;;;14.30;99.90;;;;;;5029558;28;20403;-58
2021/05/11 02:44:52;;;;;;;6.10;2.53;;;14.20;99.90;;;;;;5029864;28;20407;-54
2021/05/11 02:47:56;;;;;;;6.03;2.38;;;14.10;99.90;;;;;;5029171;28;20048;-54
2021/05/11 02:51:00;;;;;;;6.22;2.40;;;14.10;99.90;;;;;;5029459;28;20037;-58
2021/05/11 02:54:05;;;;;;;4.15;2.15;;;14.20;99.90;;;;;;5029911;28;20064;-54
2021/05/11 02:57:10;;;;;;;4.47;2.40;;;14.30;99.90;;;;;;5029323;28;20050;-55
2021/05/11 03:00:17;;;;;;;5.78;3.10;;;14.20;99.90;;;;;;5029599;28;20044;-53
2021/05/11 03:03:21;;;;;;;4.47;3.30;;;14.30;99.90;;;;;;5029609;28;20040;-55
2021/05/11 03:06:25;;;;;;;5.65;2.30;;;14.40;99.90;;;;;;5029771;28;20068;-57
2021/05/11 03:09:29;;;;;;;9.15;2.30;;;14.30;99.90;;;;;;5028929;28;20415;-57
2021/05/11 03:12:33;;;;;;;2.95;2.05;;;14.20;99.90;;;;;;5029640;28;20040;-57
2021/05/11 03:15:37;;;;;;;6.82;2.33;;;14.20;99.90;;;;;;5029357;28;20048;-53
2021/05/11 03:18:44;;;;;;;14.93;3.25;;;14.10;99.90;;;;;;5029299;28;20044;-56
2021/05/11 03:21:48;;;;;;;5.22;2.20;;;14.10;99.90;;;;;;5041219;28;20510;-54
2021/05/11 03:24:53;;;;;;;4.25;2.30;;;14.10;99.90;;;;;;5049287;28;20044;-58
2021/05/11 03:27:59;;;;;;;3.25;2.42;;;14.20;99.90;;;;;;5048773;28;20052;-56
2021/05/11 03:31:03;;;;;;;4.70;2.30;;;14.10;99.90;;;;;;5049147;28;20406;-58
2021/05/11 03:34:08;;;;;;;4.40;2.55;;;14.00;99.90;;;;;;5049271;28;20044;-56
2021/05/11 03:37:12;;;;;;;5.53;2.30;;;14.00;99.90;;;;;;5049144;28;20056;-58
2021/05/11 03:40:16;;;;;;;5.05;2.33;;;14.00;99.90;;;;;;5048768;28;20044;-58
2021/05/11 03:43:27;;;;;;;4.68;2.22;;;14.10;99.90;;;;;;5049438;28;20044;-55
2021/05/11 03:46:34;;;;;;;8.93;2.65;;;14.10;99.90;;;;;;5048980;28;20059;-54
2021/05/11 03:49:38;;;;;;;4.05;2.40;;;14.10;99.90;;;;;;5048971;28;20036;-57
2021/05/11 03:52:43;;;;;;;7.00;2.85;;;14.20;99.90;;;;;;5050323;28;20047;-56
2021/05/11 03:55:48;;;;;;;4.05;2.60;;;14.20;99.90;;;;;;5032767;28;20032;-55
2021/05/11 03:58:53;;;;;;;5.93;2.60;;;14.20;99.90;;;;;;5032358;28;20045;-58
2021/05/11 04:01:57;;;;;;;6.28;2.20;;;14.10;99.90;;;;;;5032629;28;20618;-54
2021/05/11 04:05:07;;;;;;;5.18;2.17;;;14.10;99.90;;;;;;5032786;28;20048;-54
2021/05/11 04:08:30;;;;;;;5.32;1.90;;;14.10;99.90;;;;;;5032856;28;20527;-58
2021/05/11 04:18:01;;;;;;;5.55;2.03;;;14.50;99.90;;;;;;5033018;28;20047;-55
2021/05/11 04:21:06;;;;;;;2.65;1.75;;;14.60;99.90;;;;;;5038588;28;20039;-54
2021/05/11 04:24:10;;;;;;;4.22;2.10;;;14.70;99.90;;;;;;5052386;28;20036;-54
2021/05/11 04:27:14;;;;;;;5.40;1.83;;;14.90;99.90;;;;;;5049268;28;20044;-53
2021/05/11 04:30:20;;;;;;;3.63;1.33;;;15.10;99.90;;;;;;5010972;28;20416;-53
2021/05/11 04:33:26;;;;;;;2.97;1.40;;;15.30;99.90;;;;;;5030352;28;20049;-54
2021/05/11 04:36:30;;;;;;;2.35;1.65;;;15.60;99.90;;;;;;5031177;28;20044;-52
2021/05/11 04:39:34;;;;;;;5.15;1.55;;;15.60;99.90;;;;;;5030975;28;20040;-53
2021/05/11 04:42:42;;;;;;;2.65;1.33;;;15.70;99.90;;;;;;5031489;28;20048;-54
2021/05/11 04:45:47;;;;;;;7.07;2.25;;;15.80;99.90;;;;;;5011177;28;20037;-53
2021/05/11 04:48:52;;;;;;;4.63;2.17;;;15.10;99.90;;;;;;5011069;28;20045;-54
2021/05/11 04:51:58;;;;;;;5.22;2.60;;;14.40;99.90;;;;;;5011320;28;20404;-57
2021/05/11 04:55:02;;;;;;;7.75;2.75;;;13.80;99.90;;;;;;5011499;28;20040;-58
2021/05/11 04:58:06;;;;;;;7.35;2.95;;;13.70;99.90;;;;;;5012209;28;20412;-55
2021/05/11 05:01:11;;;;;;;6.97;3.00;;;13.80;99.90;;;;;;5011564;28;20048;-54
2021/05/11 05:04:16;;;;;;;5.63;3.10;;;13.90;99.90;;;;;;5011011;28;20056;-52
2021/05/11 05:07:20;;;;;;;6.93;3.42;;;14.00;99.90;;;;;;5012882;28;20065;-56
2021/05/11 05:10:25;;;;;;;7.55;3.17;;;14.10;99.90;;;;;;5012889;28;20040;-55
2021/05/11 05:13:30;;;;;;;6.40;3.50;;;14.10;99.90;;;;;;5012671;28;20048;-58
2021/05/11 05:16:35;;;;;;;5.28;2.47;;;14.20;99.90;;;;;;5023855;28;20542;-53
2021/05/11 05:19:40;;;;;;;7.65;3.22;;;14.30;99.90;;;;;;5031158;28;20044;-55
2021/05/11 05:22:45;;;;;;;4.95;1.85;;;14.70;99.90;;;;;;5051192;28;20055;-55
2021/05/11 05:26:00;;;;;;;3.60;2.13;;;15.10;99.90;;;;;;5029095;28;20048;-54
2021/05/11 05:29:04;;;;;;;4.20;1.65;;;15.60;99.90;;;;;;5028044;28;20049;-57
2021/05/11 05:32:09;;;;;;;6.72;1.58;;;15.90;99.90;;;;;;5012789;28;20405;-54
2021/05/11 05:35:14;;;;;;;5.05;1.60;;;16.20;99.90;;;;;;5023872;28;20045;-56
2021/05/11 05:38:17;;;;;;;3.85;1.50;;;16.40;99.90;;;;;;5015164;28;20049;-57
2021/05/11 05:41:23;;;;;;;3.38;1.60;;;16.70;99.90;;;;;;5010361;28;20040;-56
2021/05/11 05:44:27;;;;;;;2.70;1.60;;;17.00;99.20;;;;;;5019433;28;20053;-57
2021/05/11 05:47:31;;;;;;;3.65;1.58;;;17.20;98.90;;;;;;5013462;28;20045;-53
2021/05/11 05:50:35;;;;;;;4.47;1.60;;;17.40;99.10;;;;;;5010617;28;20558;-53
2021/05/11 05:53:41;;;;;;;4.72;1.63;;;17.60;97.80;;;;;;5021091;28;20060;-54
2021/05/11 05:56:45;;;;;;;3.38;1.65;;;17.70;97.60;;;;;;5010626;28;20041;-58
2021/05/11 05:59:50;;;;;;;3.65;2.22;;;17.80;97.80;;;;;;5008608;28;20586;-57
2021/05/11 06:02:55;;;;;;;5.82;1.60;;;17.80;97.80;;;;;;5011888;28;20053;-54
2021/05/11 06:05:59;;;;;;;6.20;2.25;;;17.90;97.40;;;;;;5012251;28;20052;-57
2021/05/11 06:09:19;;;;;;;6.05;2.33;;;17.90;97.80;;;;;;5016917;28;20403;-54
2021/05/11 06:12:33;;;;;;;6.10;2.58;;;17.70;98.30;;;;;;5020459;28;20048;-57
2021/05/11 06:19:01;;;;;;;3.80;2.30;;;17.70;97.80;;;;;;5012435;28;20061;-58
2021/05/11 06:22:05;;;;;;;6.63;2.80;;;17.50;99.90;;;;;;5021142;28;20107;-53
2021/05/11 06:25:09;;;;;;;7.55;3.05;;;16.90;99.90;;;;;;5008925;28;20412;-55
2021/05/11 06:28:13;;;;;;;6.47;2.50;;;16.80;99.90;;;;;;5010373;28;20393;-57
2021/05/11 06:31:18;;;;;;;5.22;3.40;;;16.90;99.90;;;;;;5011393;28;20077;-57
2021/05/11 06:34:23;;;;;;;8.23;3.75;;;15.40;99.90;;;;;;5009532;28;20408;-53
2021/05/11 06:37:27;;;;;;;10.27;3.90;;;14.90;99.90;;;;;;5014956;28;20056;-56
2021/05/11 06:40:32;;;;;;;7.25;3.83;;;15.00;99.90;;;;;;5013195;28;20053;-54
2021/05/11 06:43:37;;;;;;;6.05;3.40;;;15.10;99.90;;;;;;5015077;28;20052;-55
2021/05/11 06:56:15;;;;;;;6.68;3.45;;;15.70;99.90;;;;;;5009040;28;20049;-56
2021/05/11 06:59:19;;;;;;;9.70;3.67;;;15.80;99.90;;;;;;5011568;28;20041;-52
2021/05/11 07:02:24;;;;;;;7.82;4.25;;;15.80;99.90;;;;;;5015706;28;20526;-54
2021/05/11 07:05:31;;;;;;;5.70;3.40;;;15.60;99.90;;;;;;5013459;28;20052;-59
2021/05/11 07:08:59;;;;;;;10.15;3.75;;;15.70;99.90;;;;;;5019626;28;20040;-56
2021/05/11 07:15:08;;;;;;;8.55;3.65;;;15.60;99.90;;;;;;5014907;28;20311;-57
2021/05/11 07:18:18;;;;;;;13.70;3.47;;;15.80;99.90;;;;;;5019082;28;20057;-54
2021/05/11 07:21:22;;;;;;;6.32;2.85;;;16.00;99.90;;;;;;5016010;28;20404;-58
2021/05/11 07:24:27;;;;;;;6.95;3.28;;;16.10;99.90;;;;;;5015659;28;20041;-53
2021/05/11 07:27:48;;;;;;;8.80;3.35;;;16.40;99.90;;;;;;5022886;28;20048;-55
2021/05/11 07:30:52;;;;;;;8.25;3.50;;;16.70;99.90;;;;;;5019802;28;20412;-57
2021/05/11 07:33:57;;;;;;;10.75;3.60;;;16.70;99.90;;;;;;5013801;28;20053;-57
2021/05/11 07:37:01;;;;;;;9.15;4.57;;;16.60;99.90;;;;;;5027251;28;20040;-57
2021/05/11 07:40:06;;;;;;;8.25;3.75;;;16.50;99.90;;;;;;5033072;28;20436;-57
2021/05/11 07:43:11;;;;;;;6.95;3.58;;;16.40;99.90;;;;;;5020223;28;20053;-55
2021/05/11 08:16:15;;;;;;;13.48;4.45;;;16.50;99.90;;;;;;5027944;28;20383;-55
2021/05/11 08:20:07;;;;;;;7.47;4.70;;;17.10;99.90;;;;;;5014945;28;20040;-55
2021/05/11 08:29:31;;;;;;;13.07;5.68;;;17.40;99.90;;;;;;5027581;28;20049;-53
2021/05/11 08:32:36;;;;;;;11.10;5.80;;;17.70;99.90;;;;;;5015770;28;20044;-55
2021/05/11 08:35:40;;;;;;;12.50;5.63;;;18.00;99.90;;;;;;5031773;28;20052;-55
2021/05/11 08:38:44;;;;;;;15.13;7.85;;;19.60;99.90;;;;;;5023028;28;20045;-53
2021/05/11 08:41:48;;;;;;;11.27;5.43;;;20.10;99.90;;;;;;5019267;28;20052;-58
2021/05/11 08:44:52;;;;;;;14.38;4.78;;;22.10;99.90;;;;;;5031908;28;20506;-56
2021/05/11 08:47:57;;;;;;;5.57;2.30;;;23.30;99.10;;;;;;5015603;28;20400;-57
2021/05/11 09:24:55;;;;;;;10.85;2.60;;;22.20;92.80;;;;;;5021568;28;20037;-53
2021/05/11 09:28:46;;;;;;;8.27;2.05;;;21.80;93.40;;;;;;5025624;23;20056;-53
2021/05/11 09:32:18;;;;;;;6.05;2.53;;;21.20;94.30;;;;;;4988225;28;20076;-52
2021/05/11 09:54:22;;;;;;;6.82;2.90;;;22.00;93.90;;;;;;4985298;28;21016;-53
2021/05/11 10:37:52;;;;;;;5.15;3.15;;;20.60;96.60;;;;;;4971013;28;20042;-51
2021/05/11 10:47:14;;;;;;;4.45;2.85;;;19.50;99.90;;;;;;4969538;28;20057;-54
2021/05/11 10:50:42;;;;;;;8.88;3.17;;;19.30;99.90;;;;;;4970867;28;20054;-52
2021/05/11 10:53:46;;;;;;;6.55;2.75;;;19.00;99.90;;;;;;4969977;28;20062;-55
2021/05/11 10:56:52;;;;;;;9.82;3.10;;;19.00;99.90;;;;;;4969226;28;20049;-55
2021/05/11 11:03:21;;;;;;;16.48;3.72;;;19.30;99.90;;;;;;4970840;28;20629;-52
2021/05/11 11:06:45;;;;;;;13.05;3.17;;;19.30;99.90;;;;;;4969079;28;20065;-53
2021/05/11 11:09:59;;;;;;;3.85;2.53;;;19.20;99.90;;;;;;4967816;28;20050;-55
2021/05/11 11:13:04;;;;;;;6.53;2.92;;;19.20;99.90;;;;;;4961021;28;20046;-53
2021/05/11 11:16:09;;;;;;;8.57;2.65;;;19.20;99.90;;;;;;4966938;28;20069;-55
2021/05/11 11:19:16;;;;;;;7.10;3.63;;;19.40;99.90;;;;;;4975242;28;20556;-52
2021/05/11 11:26:05;;;;;;;8.32;4.20;;;18.70;99.90;;;;;;4951025;29;20051;-52
2021/05/11 11:29:12;;;;;;;9.52;3.85;;;18.50;99.90;;;;;;4966895;28;20078;-52
2021/05/11 11:32:21;;;;;;;6.57;3.60;;;18.30;99.90;;;;;;4930524;28;20257;-52
2021/05/11 11:35:31;;;;;;;5.97;3.17;;;18.00;99.90;;;;;;4930298;28;20045;-52
2021/05/11 11:38:36;;;;;;;9.38;2.97;;;17.60;99.90;;;;;;4943194;28;20046;-52
2021/05/11 11:41:40;;;;;;;7.68;3.30;;;17.50;99.90;;;;;;4949184;28;20046;-54
2021/05/11 11:44:46;;;;;;;4.43;2.67;;;17.40;99.90;;;;;;4953604;28;20390;-55
2021/05/11 11:48:03;;;;;;;9.88;3.17;;;17.40;99.90;;;;;;4953390;28;20038;-52
2021/05/11 11:51:09;;;;;;;9.27;3.53;;;17.40;99.90;;;;;;4956042;28;20046;-52
2021/05/11 11:54:29;;;;;;;10.25;3.75;;;17.30;99.90;;;;;;4952677;28;20065;-53
2021/05/11 12:00:49;;;;;;;10.93;3.33;;;16.70;99.90;;;;;;4958049;28;20057;-52
2021/05/11 12:03:54;;;;;;;6.32;3.22;;;16.60;99.90;;;;;;4954281;28;20053;-52
2021/05/11 12:07:08;;;;;;;9.88;3.33;;;16.60;99.90;;;;;;4955799;28;20544;-53
2021/05/11 12:10:13;;;;;;;7.15;3.65;;;16.30;99.90;;;;;;4956821;28;20049;-52
2021/05/11 12:13:22;;;;;;;6.18;3.75;;;16.20;99.90;;;;;;4955313;28;21415;-53
2021/05/11 12:16:28;;;;;;;7.07;3.53;;;16.20;99.90;;;;;;4961576;28;20054;-52
2021/05/11 12:19:34;;;;;;;9.32;3.75;;;16.00;99.90;;;;;;4962933;28;20556;-53
2021/05/11 12:22:38;;;;;;;6.78;4.03;;;16.00;99.90;;;;;;4955282;28;20061;-55
2021/05/11 12:25:53;;;;;;;9.23;4.40;;;16.10;99.90;;;;;;4950989;28;20536;-53
2021/05/11 12:29:12;;;;;;;9.95;4.93;;;16.10;99.90;;;;;;4958181;28;20440;-55
2021/05/11 12:32:23;;;;;;;8.77;4.45;;;16.10;99.90;;;;;;4946724;28;20732;-55
2021/05/11 12:35:29;;;;;;;9.90;4.50;;;16.00;99.90;;;;;;4967977;28;20049;-54
2021/05/11 12:38:34;;;;;;;7.45;4.30;;;16.00;99.90;;;;;;4953078;28;20064;-55
2021/05/11 12:41:38;;;;;;;8.13;4.32;;;16.00;99.90;;;;;;4960097;28;20045;-54
2021/05/11 12:44:43;;;;;;;6.40;4.18;;;16.10;99.90;;;;;;4951381;28;20050;-54
2021/05/11 12:48:00;;;;;;;7.50;4.35;;;16.10;99.90;;;;;;4953684;28;20904;-53
2021/05/11 12:51:04;;;;;;;9.15;4.40;;;16.10;99.90;;;;;;4955561;28;20066;-53
2021/05/11 12:54:50;;;;;;;8.07;4.30;;;16.00;99.90;;;;;;4951677;28;20041;-54
2021/05/11 12:57:57;;;;;;;12.88;4.60;;;15.80;99.90;;;;;;4958257;28;20743;-52
2021/05/11 13:01:21;;;;;;;8.75;5.07;;;15.70;99.90;;;;;;4958432;28;20050;-54
2021/05/11 13:14:56;;;;;;;7.10;4.63;;;15.50;99.90;;;;;;4958123;28;20058;-56
2021/05/11 13:28:18;;;;;;;14.43;6.70;;;14.90;99.90;;;;;;4981334;28;20046;-53
2021/05/11 13:31:37;;;;;;;15.13;7.00;;;14.80;99.90;;;;;;4971185;28;20409;-52
2021/05/11 13:34:41;;;;;;;12.80;7.18;;;14.70;99.90;;;;;;4970788;28;20046;-53
2021/05/11 13:37:45;;;;;;;14.40;9.50;;;14.70;99.90;;;;;;4969309;28;20065;-52
2021/05/11 13:40:51;;;;;;;17.60;8.77;;;14.60;99.90;;;;;;4971583;28;20405;-52
2021/05/11 13:43:55;;;;;;;18.13;8.15;;;14.50;99.90;;;;;;4970905;28;20049;-52
2021/05/11 13:46:59;;;;;;;17.23;9.43;;;14.50;99.90;;;;;;4970215;28;20046;-53
2021/05/11 13:50:05;;;;;;;17.25;9.23;;;14.50;99.90;;;;;;4957987;28;20042;-54
2021/05/11 13:53:09;;;;;;;17.50;9.75;;;14.40;99.90;;;;;;4970662;28;20513;-53
2021/05/11 14:05:53;;;;;;;20.48;10.45;;;14.50;99.90;;;;;;4976593;28;20428;-56
2021/05/11 14:08:59;;;;;;;17.70;10.38;;;14.50;99.90;;;;;;4969397;28;20398;-53
2021/05/11 14:12:04;;;;;;;15.60;9.63;;;14.50;99.90;;;;;;4971660;28;20042;-56
2021/05/11 14:15:09;;;;;;;22.27;16.75;;;14.60;99.90;;;;;;4970644;28;20046;-54
2021/05/11 14:18:13;;;;;;;14.88;9.40;;;14.60;99.90;;;;;;4970155;28;20054;-53
2021/05/11 14:21:17;;;;;;;20.13;11.73;;;14.50;99.90;;;;;;4971033;28;20065;-53
2021/05/11 14:24:24;;;;;;;23.02;14.35;;;14.50;99.90;;;;;;4970677;28;20402;-53
2021/05/11 14:27:29;;;;;;;17.73;8.82;;;14.40;99.90;;;;;;4956669;28;20049;-53
2021/05/11 14:30:33;;;;;;;17.67;9.77;;;14.40;99.90;;;;;;4970204;28;20429;-52
2021/05/11 14:33:38;;;;;;;23.08;13.52;;;14.40;99.90;;;;;;4970818;28;20041;-57
2021/05/11 14:36:46;;;;;;;18.92;15.10;;;14.50;99.90;;;;;;4969286;28;20050;-54
2021/05/11 14:39:50;;;;;;;8.73;6.32;;;14.50;99.90;;;;;;4968955;28;20045;-53
2021/05/11 14:42:54;;;;;;;7.35;4.38;;;14.40;99.90;;;;;;4987132;28;20057;-52
2021/05/11 14:46:02;;;;;;;12.55;9.77;;;14.50;99.90;;;;;;4976095;28;20046;-55
2021/05/11 14:49:07;;;;;;;20.27;16.35;;;14.60;99.90;;;;;;4969785;28;20038;-53
2021/05/11 14:52:13;;;;;;;15.32;10.23;;;14.60;99.90;;;;;;4968375;28;20042;-53
2021/05/11 14:55:19;;;;;;;16.13;13.93;;;14.60;99.90;;;;;;4951803;28;20054;-54
2021/05/11 14:58:24;;;;;;;7.28;4.07;;;14.60;99.90;;;;;;4956340;28;20045;-55
2021/05/11 15:01:29;;;;;;;13.82;9.25;;;14.50;99.90;;;;;;4969381;28;20528;-54
2021/05/11 15:04:33;;;;;;;6.20;3.70;;;14.50;99.90;;;;;;4983426;28;20053;-53
2021/05/11 15:07:38;;;;;;;7.38;4.53;;;14.50;99.90;;;;;;4979267;28;20045;-53
2021/05/11 15:10:43;;;;;;;10.88;5.28;;;14.40;99.90;;;;;;4970337;28;20546;-52
2021/05/11 15:13:50;;;;;;;16.90;10.07;;;14.40;99.90;;;;;;4969944;28;20045;-54
2021/05/11 15:20:16;;;;;;;9.75;5.38;;;14.40;99.90;;;;;;4969661;28;20412;-53
2021/05/11 15:23:21;;;;;;;9.00;3.55;;;14.40;99.90;;;;;;4970751;28;20046;-56
2021/05/11 15:26:31;;;;;;;10.02;5.15;;;14.40;99.90;;;;;;4980745;23;20054;-55
2021/05/11 15:29:37;;;;;;;7.45;3.60;;;14.40;99.90;;;;;;4987416;28;20065;-54
2021/05/11 15:32:56;;;;;;;2.35;1.08;;;14.40;99.90;;;;;;5000648;28;20044;-56
2021/05/11 15:36:02;;;;;;;1.65;1.10;;;14.20;99.90;;;;;;5014687;28;20531;-55
2021/05/11 15:39:08;;;;;;;5.10;1.85;;;14.00;99.90;;;;;;4990933;28;20057;-56
2021/05/11 15:42:12;;;;;;;5.45;1.95;;;13.70;99.90;;;;;;4992495;28;20046;-53
2021/05/11 15:45:17;;;;;;;5.57;1.80;;;13.50;99.90;;;;;;4979627;28;20061;-56
2021/05/11 15:48:21;;;;;;;4.65;1.05;;;13.30;99.90;;;;;;4977504;28;20524;-53
2021/05/11 15:51:26;;;;;;;1.45;0.98;;;13.20;99.90;;;;;;4971156;28;20050;-55
2021/05/11 15:54:30;;;;;;;2.47;1.23;;;13.10;99.90;;;;;;4990572;28;20053;-52
2021/05/11 15:57:34;;;;;;;4.00;1.33;;;13.00;99.90;;;;;;4976334;28;20105;-53
2021/05/11 16:00:43;;;;;;;6.15;1.10;;;13.10;99.90;;;;;;4973324;28;20054;-52
2021/05/11 16:03:47;;;;;;;3.83;1.60;;;13.10;99.90;;;;;;4993101;28;20053;-53
2021/05/11 16:06:51;;;;;;;3.65;2.58;;;13.10;99.90;;;;;;4991864;28;20045;-56
2021/05/11 16:09:55;;;;;;;3.67;2.03;;;13.20;99.90;;;;;;4991311;28;20049;-53
2021/05/11 16:13:00;;;;;;;2.15;1.58;;;13.20;99.90;;;;;;4992919;28;20407;-52
2021/05/11 16:16:04;;;;;;;2.95;1.83;;;12.80;99.90;;;;;;4992310;28;20049;-52
2021/05/11 16:19:09;;;;;;;3.50;1.60;;;12.70;99.90;;;;;;4991827;28;20053;-52
2021/05/11 16:22:13;;;;;;;4.65;1.30;;;12.80;99.90;;;;;;4977740;28;20054;-53
2021/05/11 16:25:22;;;;;;;1.23;0.90;;;12.90;99.90;;;;;;4972366;28;20050;-53
2021/05/11 16:28:26;;;;;;;1.40;1.20;;;13.00;99.90;;;;;;4971999;28;20401;-53
2021/05/11 16:31:30;;;;;;;3.00;1.55;;;13.00;99.90;;;;;;4975103;28;20034;-52
2021/05/11 16:34:35;;;;;;;5.22;3.70;;;13.10;99.90;;;;;;4992684;28;20069;-53
2021/05/11 16:37:40;;;;;;;4.30;2.67;;;13.10;99.90;;;;;;4977485;28;20508;-52
2021/05/11 16:40:45;;;;;;;4.22;2.60;;;13.00;99.90;;;;;;4960158;28;20042;-53
2021/05/11 16:43:50;;;;;;;5.93;3.72;;;13.00;99.90;;;;;;4973485;28;20049;-53
2021/05/11 16:46:57;;;;;;;3.63;1.77;;;13.00;99.90;;;;;;4970886;28;20050;-52
2021/05/11 16:50:01;;;;;;;2.80;2.10;;;13.00;99.90;;;;;;4972259;28;20045;-54
2021/05/11 16:53:07;;;;;;;6.32;2.38;;;13.00;99.90;;;;;;4973156;28;20054;-52
2021/05/11 16:56:13;;;;;;;3.10;1.83;;;12.90;99.90;;;;;;4971637;28;20054;-52
2021/05/11 16:59:18;;;;;;;2.78;2.25;;;12.90;99.90;;;;;;4970651;28;20053;-52
2021/05/11 17:02:23;;;;;;;4.35;2.97;;;12.90;99.90;;;;;;4986241;28;20068;-53
2021/05/11 17:05:28;;;;;;;2.55;1.83;;;13.00;99.90;;;;;;4991632;28;20041;-52
2021/05/11 17:08:32;;;;;;;0.50;0.40;;;12.90;99.90;;;;;;4990551;28;20473;-53
2021/05/11 17:11:39;;;;;;;1.95;1.00;;;12.90;99.90;;;;;;4971281;28;20038;-55
2021/05/11 17:14:48;;;;;;;0.93;0.60;;;12.90;99.90;;;;;;4971700;28;20508;-52
2021/05/11 17:17:53;;;;;;;1.05;0.55;;;13.00;99.90;;;;;;4970981;28;20417;-52
2021/05/11 17:20:57;;;;;;;1.90;0.60;;;13.00;99.90;;;;;;4975949;28;20393;-52
2021/05/11 17:24:04;;;;;;;3.63;1.92;;;12.90;99.90;;;;;;4991978;28;20401;-52
2021/05/11 17:27:09;;;;;;;4.78;2.10;;;13.00;99.90;;;;;;4989894;28;20053;-53
2021/05/11 17:30:14;;;;;;;3.67;2.05;;;13.10;99.90;;;;;;4990591;28;20053;-52
2021/05/11 17:33:22;;;;;;;1.50;0.70;;;13.10;99.90;;;;;;4991485;28;20045;-53
2021/05/11 17:40:21;;;;;;;4.53;2.20;;;13.10;99.90;;;;;;4990562;28;20073;-52
2021/05/11 17:43:26;;;;;;;2.00;1.10;;;13.20;99.90;;;;;;4990452;28;20520;-53
2021/05/11 17:46:31;;;;;;;1.88;1.00;;;13.20;99.90;;;;;;4991194;28;20516;-52
2021/05/11 17:49:35;;;;;;;5.35;1.45;;;13.10;99.90;;;;;;4990492;28;20049;-55
2021/05/11 17:52:39;;;;;;;5.68;3.30;;;13.10;99.90;;;;;;4978787;28;20049;-54
2021/05/11 17:55:44;;;;;;;7.05;3.50;;;13.10;99.90;;;;;;4991354;28;20054;-52
2021/05/11 17:58:48;;;;;;;4.35;2.83;;;13.10;99.90;;;;;;4972465;28;20058;-52
2021/05/11 18:01:55;;;;;;;12.93;4.90;;;13.00;99.90;;;;;;4980620;28;20045;-55
2021/05/11 18:04:59;;;;;;;3.03;2.00;;;12.90;99.90;;;;;;4990859;28;20045;-52
2021/05/11 18:08:05;;;;;;;2.40;1.20;;;12.90;99.90;;;;;;4989931;28;20041;-53
2021/05/11 18:11:09;;;;;;;2.25;1.58;;;12.80;99.90;;;;;;4989390;28;20129;-53
2021/05/11 18:14:13;;;;;;;4.15;1.30;;;12.80;99.90;;;;;;4990968;28;20054;-52
2021/05/11 18:17:17;;;;;;;6.72;3.10;;;12.80;99.90;;;;;;4989802;28;20057;-53
2021/05/11 18:20:22;;;;;;;7.07;4.38;;;12.70;99.90;;;;;;4989521;28;20052;-53
2021/05/11 18:23:26;;;;;;;8.13;3.25;;;12.80;99.90;;;;;;4970755;28;20049;-52
2021/05/11 18:26:31;;;;;;;8.20;2.80;;;12.80;99.90;;;;;;4988970;28;20416;-55
2021/05/11 18:29:35;;;;;;;5.80;2.95;;;12.80;99.90;;;;;;4989080;28;20049;-52
2021/05/11 18:32:41;;;;;;;4.07;2.78;;;12.70;99.90;;;;;;4988161;28;20053;-53
2021/05/11 18:35:47;;;;;;;7.20;4.22;;;12.70;99.90;;;;;;4970818;28;20520;-52
2021/05/11 18:38:56;;;;;;;10.98;5.75;;;12.70;99.90;;;;;;4969883;28;20057;-52
2021/05/11 18:42:00;;;;;;;12.07;4.95;;;12.60;99.90;;;;;;4970095;28;20441;-52
2021/05/11 18:45:06;;;;;;;28.83;4.72;;;12.40;99.90;;;;;;4970470;28;20053;-52
2021/05/11 18:48:11;;;;;;;9.27;4.13;;;12.20;99.90;;;;;;4969774;28;20409;-52
2021/05/11 18:51:15;;;;;;;6.65;2.95;;;12.20;99.90;;;;;;4969597;28;20049;-52
2021/05/11 18:54:21;;;;;;;5.88;3.72;;;12.20;99.90;;;;;;4970986;28;20054;-52
2021/05/11 18:57:26;;;;;;;15.93;10.25;;;12.20;99.90;;;;;;4973659;28;20134;-53
2021/05/11 19:00:30;;;;;;;5.72;3.33;;;12.30;99.90;;;;;;4984005;28;20417;-52
2021/05/11 19:03:35;;;;;;;4.65;2.80;;;12.40;99.90;;;;;;4986899;28;20057;-54
2021/05/11 19:06:40;;;;;;;122.72;15.93;;;12.40;99.90;;;;;;4987378;28;20045;-52
2021/05/11 19:09:44;;;;;;;1269.93;134.20;;;12.40;99.90;;;;;;5001949;28;20049;-52
2021/05/11 19:12:50;;;;;;;24.13;5.07;;;12.40;99.90;;;;;;4992883;28;20041;-55
2021/05/11 19:15:55;;;;;;;3.97;2.30;;;12.30;99.90;;;;;;4979900;28;20049;-52
2021/05/11 19:18:59;;;;;;;8.32;4.00;;;12.30;99.90;;;;;;4981299;28;20525;-52
2021/05/11 19:22:04;;;;;;;9.20;4.07;;;12.30;99.90;;;;;;4984971;28;20053;-55
2021/05/11 19:25:09;;;;;;;8.27;4.95;;;12.30;99.90;;;;;;4985271;28;20513;-53
2021/05/11 19:28:13;;;;;;;14.35;10.15;;;12.30;99.90;;;;;;4983520;28;20516;-52
2021/05/11 19:31:17;;;;;;;9.32;6.15;;;12.30;99.90;;;;;;4987273;28;20049;-53
2021/05/11 19:34:22;;;;;;;6.32;2.28;;;12.30;99.90;;;;;;4984470;28;20069;-52
2021/05/11 19:37:27;;;;;;;6.07;2.35;;;12.30;99.90;;;;;;4985402;28;20062;-56
2021/05/11 19:40:31;;;;;;;4.80;2.67;;;12.30;99.90;;;;;;4983953;28;20049;-53
2021/05/11 19:43:38;;;;;;;3.15;2.05;;;12.30;99.90;;;;;;4984919;28;20358;-52
2021/05/11 19:46:43;;;;;;;2.85;1.58;;;12.20;99.90;;;;;;4984761;28;20045;-54
2021/05/11 19:49:48;;;;;;;5.45;2.25;;;12.10;99.90;;;;;;4984809;28;20045;-52
2021/05/11 19:52:52;;;;;;;4.38;2.35;;;12.10;99.90;;;;;;4989062;28;20050;-53
2021/05/11 19:55:57;;;;;;;5.70;1.40;;;12.20;99.90;;;;;;4984575;28;20034;-53
2021/05/11 19:59:02;;;;;;;3.15;1.60;;;12.20;99.90;;;;;;4983014;28;20053;-52
2021/05/11 20:02:07;;;;;;;4.32;2.75;;;12.10;99.90;;;;;;4986469;28;20042;-54
2021/05/11 20:05:12;;;;;;;3.47;2.47;;;12.10;99.90;;;;;;4986351;28;20412;-52
2021/05/11 20:08:16;;;;;;;3.70;2.67;;;11.70;99.90;;;;;;4984891;28;20046;-52
2021/05/11 20:11:20;;;;;;;10.13;4.65;;;11.70;99.90;;;;;;4995790;28;20049;-52
2021/05/11 20:14:25;;;;;;;11.02;5.47;;;11.70;99.90;;;;;;4984112;28;20042;-51
2021/05/11 20:17:30;;;;;;;10.00;5.70;;;11.60;99.90;;;;;;4986557;28;20053;-52
2021/05/11 20:20:36;;;;;;;28.23;11.95;;;11.60;99.90;;;;;;4985972;28;20440;-52
2021/05/11 20:23:40;;;;;;;57.45;13.75;;;11.80;99.90;;;;;;4984878;28;20049;-54